Time;durP1;ratioP1;P1;durP2;ratioP2;P2;SDS_P1;SDS_P2;PMS_P1;PMS_P2;Temp;Humidity;BMP_temperature;BMP_pressure;BME280_temperature;BME280_humidity;BME280_pressure;Samples;Min_cycle;Max_cycle;Signal;HPM_P1;HPM_P2
2023/05/25 00:00:11;;;;;;;8.98;5.93;;;;;;;13.17;71.81;98996.59;5072755;28;20021;-66
2023/05/25 00:02:38;;;;;;;9.70;5.68;;;;;;;13.18;71.68;99004.53;5071574;28;20028;-67
2023/05/25 00:05:04;;;;;;;10.10;5.70;;;;;;;13.21;71.81;99008.66;5057442;28;20033;-67
2023/05/25 00:07:29;;;;;;;9.48;6.13;;;;;;;13.23;71.79;99006.41;5036666;28;20389;-67
2023/05/25 00:09:54;;;;;;;13.65;6.72;;;;;;;13.23;71.95;99006.41;5049650;28;20039;-67
2023/05/25 00:12:20;;;;;;;10.95;5.95;;;;;;;13.22;71.82;99007.53;5076964;28;20480;-66
2023/05/25 00:14:45;;;;;;;9.38;6.15;;;;;;;13.22;71.80;99005.59;5058817;28;20094;-66
2023/05/25 00:17:11;;;;;;;9.75;6.47;;;;;;;13.23;71.85;99012.72;5056386;28;20412;-67
2023/05/25 00:19:41;;;;;;;8.70;6.18;;;;;;;13.24;71.78;99006.09;5054233;28;20025;-67
2023/05/25 00:22:07;;;;;;;9.05;6.55;;;;;;;13.26;71.72;99008.53;5050613;28;20026;-67
2023/05/25 00:24:33;;;;;;;11.18;6.47;;;;;;;13.27;71.73;99010.19;5063197;28;20067;-66
2023/05/25 00:26:58;;;;;;;10.77;6.95;;;;;;;13.27;71.69;99009.38;5076270;28;20048;-67
2023/05/25 00:29:24;;;;;;;10.55;6.88;;;;;;;13.29;71.83;99010.69;5056465;28;20037;-67
2023/05/25 00:31:50;;;;;;;8.55;6.20;;;;;;;13.28;71.73;99009.06;5056358;28;20049;-66
2023/05/25 00:34:16;;;;;;;10.75;6.47;;;;;;;13.29;72.12;99010.69;5056452;28;20052;-66
2023/05/25 00:36:47;;;;;;;9.60;6.43;;;;;;;13.31;72.04;99011.22;5055376;28;20601;-66
2023/05/25 00:39:17;;;;;;;9.35;6.07;;;;;;;13.27;71.82;99012.13;5034987;28;20117;-66
2023/05/25 00:41:44;;;;;;;9.88;6.20;;;;;;;13.26;71.74;99016.81;5036077;28;20050;-67
2023/05/25 00:44:11;;;;;;;11.63;6.50;;;;;;;13.26;71.83;99016.81;5035897;28;20037;-66
2023/05/25 00:46:37;;;;;;;10.18;6.53;;;;;;;13.27;71.80;99012.13;5047241;28;20039;-66
2023/05/25 00:49:03;;;;;;;11.52;7.30;;;;;;;13.23;71.93;99014.69;5055633;28;20035;-66
2023/05/25 00:51:31;;;;;;;10.77;6.30;;;;;;;13.19;71.93;99013.63;5054311;28;20037;-66
2023/05/25 00:53:57;;;;;;;9.73;6.47;;;;;;;13.18;71.78;99012.00;5035952;28;20112;-66
2023/05/25 00:56:27;;;;;;;10.07;6.70;;;;;;;13.15;71.99;99007.91;5037981;28;20581;-66
2023/05/25 00:58:55;;;;;;;9.80;7.13;;;;;;;13.14;72.13;99010.97;5035877;28;20083;-66
2023/05/25 01:01:22;;;;;;;9.23;6.88;;;;;;;13.08;72.15;99013.78;5036910;28;20048;-66
2023/05/25 01:03:53;;;;;;;10.30;6.65;;;;;;;13.07;72.14;99008.56;5036833;28;20096;-66
2023/05/25 01:06:22;;;;;;;10.93;7.28;;;;;;;13.04;72.38;99010.00;5048244;28;20124;-66
2023/05/25 01:08:55;;;;;;;11.60;7.20;;;;;;;13.04;72.08;99009.19;5053929;28;20082;-66
2023/05/25 01:11:27;;;;;;;11.27;6.82;;;;;;;13.03;72.43;99000.09;5041917;28;20044;-67
2023/05/25 01:13:53;;;;;;;10.60;6.93;;;;;;;13.02;72.16;98997.66;5044226;28;20029;-67
2023/05/25 01:16:20;;;;;;;12.07;7.43;;;;;;;13.01;72.13;99001.53;5036386;28;20502;-67
2023/05/25 01:18:46;;;;;;;10.63;7.43;;;;;;;12.98;72.26;98997.41;5052752;28;20033;-66
2023/05/25 01:21:20;;;;;;;11.77;7.82;;;;;;;12.99;72.07;99003.75;5055395;28;20108;-67
2023/05/25 01:24:00;;;;;;;11.30;7.18;;;;;;;12.99;72.01;99001.00;5037421;28;20025;-67
2023/05/25 01:26:30;;;;;;;9.55;7.22;;;;;;;13.00;72.07;99005.41;5051779;28;20116;-66
2023/05/25 01:28:57;;;;;;;12.13;7.55;;;;;;;13.01;71.84;99001.53;5040167;28;20040;-67
2023/05/25 01:31:23;;;;;;;13.05;7.68;;;;;;;13.02;72.26;99012.22;5037070;28;20034;-67
2023/05/25 01:33:50;;;;;;;11.55;7.80;;;;;;;13.03;72.02;99016.63;5047335;28;20032;-66
2023/05/25 01:36:16;;;;;;;12.27;7.72;;;;;;;13.04;71.80;99015.50;5041712;28;20043;-67
2023/05/25 01:38:41;;;;;;;11.13;7.30;;;;;;;13.06;72.26;99016.03;5054305;28;20089;-66
2023/05/25 01:41:07;;;;;;;10.43;7.38;;;;;;;13.06;72.21;99010.53;5053145;28;20124;-66
2023/05/25 01:43:32;;;;;;;11.25;6.63;;;;;;;13.06;72.02;99010.53;5054957;28;20041;-66
2023/05/25 01:46:26;;;;;;;12.52;7.32;;;;;;;13.07;72.07;99016.81;5053329;28;20082;-67
2023/05/25 01:49:15;;;;;;;10.02;7.20;;;;;;;13.08;71.99;99012.97;5057169;28;20033;-66
2023/05/25 01:51:56;;;;;;;12.43;7.75;;;;;;;13.08;72.00;99016.53;5035040;28;20482;-67
2023/05/25 01:54:29;;;;;;;13.48;8.23;;;;;;;13.09;72.27;99018.19;5038308;28;20033;-66
2023/05/25 01:56:57;;;;;;;11.98;7.95;;;;;;;13.09;72.10;99022.84;5044089;28;20468;-67
2023/05/25 01:59:25;;;;;;;12.98;7.50;;;;;;;13.07;71.90;99016.81;5034818;28;20025;-67
2023/05/25 02:01:51;;;;;;;10.70;7.25;;;;;;;13.05;71.90;99013.56;5043290;28;20044;-66
2023/05/25 02:04:17;;;;;;;8.85;6.40;;;;;;;13.00;72.06;99017.22;5052743;28;20031;-67
2023/05/25 02:06:46;;;;;;;11.32;6.63;;;;;;;12.92;71.72;99010.47;5054221;28;20025;-67
2023/05/25 02:09:12;;;;;;;10.75;6.45;;;;;;;12.88;71.65;99014.91;5047829;28;20411;-67
2023/05/25 02:11:37;;;;;;;9.50;6.63;;;;;;;12.85;71.60;99010.00;5034096;28;20025;-67
2023/05/25 02:14:02;;;;;;;10.45;6.45;;;;;;;12.83;71.30;99011.44;5034511;28;20458;-69
2023/05/25 02:16:28;;;;;;;10.25;6.18;;;;;;;12.75;71.68;99008.22;5034346;28;20034;-69
2023/05/25 02:18:56;;;;;;;8.90;5.80;;;;;;;12.74;71.78;99019.53;5035440;28;20488;-68
2023/05/25 02:21:22;;;;;;;9.57;6.25;;;;;;;12.74;71.64;99020.34;5034208;28;20030;-68
2023/05/25 02:23:48;;;;;;;8.80;5.55;;;;;;;12.72;71.84;99019.84;5045141;28;20027;-70
2023/05/25 02:26:13;;;;;;;10.23;5.97;;;;;;;12.68;71.91;99015.19;5039753;28;20037;-70
2023/05/25 02:28:38;;;;;;;11.60;6.60;;;;;;;12.67;71.75;99011.66;5035463;28;20083;-70
2023/05/25 02:31:04;;;;;;;8.73;6.03;;;;;;;12.63;72.00;99010.59;5053755;28;20076;-70
2023/05/25 02:33:29;;;;;;;10.50;6.18;;;;;;;12.59;72.16;99004.88;5053964;28;20032;-69
2023/05/25 02:35:55;;;;;;;9.10;5.80;;;;;;;12.61;71.92;99004.56;5053366;28;20303;-69
2023/05/25 02:38:20;;;;;;;9.80;6.05;;;;;;;12.60;72.22;99011.19;5053964;28;20027;-69
2023/05/25 02:40:46;;;;;;;10.75;6.30;;;;;;;12.56;71.76;99007.38;5053200;28;20049;-70
2023/05/25 02:43:11;;;;;;;8.38;6.00;;;;;;;12.54;72.32;99004.09;5054088;28;20028;-70
2023/05/25 02:45:36;;;;;;;10.77;6.53;;;;;;;12.50;72.22;99015.69;5051773;28;20578;-69
2023/05/25 02:48:02;;;;;;;8.75;6.65;;;;;;;12.49;72.22;99008.56;5043900;28;20441;-70
2023/05/25 02:50:27;;;;;;;7.57;6.03;;;;;;;12.51;72.28;99011.03;5053302;28;20064;-69
2023/05/25 02:52:53;;;;;;;9.65;6.22;;;;;;;12.51;72.49;99016.53;5050991;28;20389;-69
2023/05/25 02:55:19;;;;;;;15.65;10.93;;;;;;;12.49;72.58;99016.81;5050787;28;20033;-69
2023/05/25 02:57:44;;;;;;;25.27;16.05;;;;;;;12.50;72.87;99012.16;5049835;28;20051;-70
2023/05/25 03:00:11;;;;;;;20.05;13.38;;;;;;;12.49;72.72;99013.25;5051415;28;20063;-70
2023/05/25 03:02:36;;;;;;;13.13;9.20;;;;;;;12.48;72.84;99014.38;5051441;28;20495;-70
2023/05/25 03:05:02;;;;;;;11.80;7.25;;;;;;;12.49;73.12;99014.06;5042106;28;20037;-70
2023/05/25 03:07:27;;;;;;;10.23;7.20;;;;;;;12.44;72.68;99008.63;5066132;28;20020;-70
2023/05/25 03:09:53;;;;;;;14.88;7.00;;;;;;;12.39;72.77;99005.97;5071390;28;20028;-70
2023/05/25 03:12:18;;;;;;;10.85;6.85;;;;;;;12.39;72.99;99005.13;5043816;28;20071;-70
2023/05/25 03:14:44;;;;;;;10.38;7.00;;;;;;;12.38;72.86;99007.09;5033384;28;20045;-70
2023/05/25 03:17:09;;;;;;;10.10;6.90;;;;;;;12.38;73.14;99011.75;5043461;28;20432;-70
2023/05/25 03:19:35;;;;;;;13.52;8.25;;;;;;;12.35;72.95;99013.97;5071166;28;20081;-70
2023/05/25 03:22:02;;;;;;;10.90;7.35;;;;;;;12.34;73.07;99014.28;5062941;28;20454;-70
2023/05/25 03:24:27;;;;;;;12.02;7.22;;;;;;;12.32;73.37;99016.50;5045591;28;20057;-70
2023/05/25 03:26:53;;;;;;;12.30;7.32;;;;;;;12.31;73.74;99023.13;5034370;28;20101;-70
2023/05/25 03:29:18;;;;;;;13.02;7.13;;;;;;;12.28;73.28;99015.44;5036083;28;20025;-71
2023/05/25 03:31:43;;;;;;;12.45;6.88;;;;;;;12.25;72.95;99022.34;5053095;28;20047;-71
2023/05/25 03:34:09;;;;;;;13.02;7.97;;;;;;;12.21;73.02;99018.56;5051146;28;20039;-71
2023/05/25 03:36:36;;;;;;;12.77;7.50;;;;;;;12.19;73.12;99018.84;5051544;28;20100;-71
2023/05/25 03:39:02;;;;;;;10.25;7.50;;;;;;;12.17;73.57;99023.81;5052992;28;20388;-70
2023/05/25 03:41:27;;;;;;;13.45;7.57;;;;;;;12.13;73.59;99025.50;5048712;28;20045;-71
2023/05/25 03:43:52;;;;;;;15.07;7.82;;;;;;;12.11;73.09;99019.47;5032989;28;20441;-71
2023/05/25 03:46:18;;;;;;;13.65;7.78;;;;;;;12.12;73.69;99029.38;5036517;28;20028;-71
2023/05/25 03:48:43;;;;;;;12.48;7.93;;;;;;;12.12;73.41;99040.38;5052709;28;20060;-70
2023/05/25 03:51:08;;;;;;;15.15;10.63;;;;;;;12.10;73.50;99037.09;5034860;28;20037;-70
2023/05/25 03:53:34;;;;;;;23.65;11.02;;;;;;;12.08;73.24;99041.25;5033066;28;20116;-69
2023/05/25 03:55:59;;;;;;;17.67;11.10;;;;;;;12.00;73.37;99040.78;5033221;28;20021;-69
2023/05/25 03:58:25;;;;;;;12.88;8.50;;;;;;;11.98;74.65;99048.47;5034553;28;20030;-70
2023/05/25 04:00:51;;;;;;;10.70;7.70;;;;;;;11.91;74.51;99039.75;5041160;28;20037;-70
2023/05/25 04:03:17;;;;;;;15.00;8.35;;;;;;;11.86;73.91;99037.03;5033789;28;20112;-71
2023/05/25 04:05:44;;;;;;;12.65;8.45;;;;;;;11.86;73.82;99053.53;5047129;28;20059;-70
2023/05/25 04:08:11;;;;;;;16.05;8.57;;;;;;;11.86;74.10;99048.88;5045578;28;20037;-70
2023/05/25 04:10:36;;;;;;;15.48;9.27;;;;;;;11.83;74.51;99054.94;5052165;28;20091;-70
2023/05/25 04:13:01;;;;;;;15.57;9.13;;;;;;;11.80;74.29;99050.03;5052664;28;20421;-70
2023/05/25 04:15:27;;;;;;;17.08;8.85;;;;;;;11.81;74.59;99051.66;5047373;28;20068;-70
2023/05/25 04:17:53;;;;;;;12.63;8.60;;;;;;;11.81;74.86;99062.66;5034516;28;20029;-70
2023/05/25 04:20:19;;;;;;;15.23;9.15;;;;;;;11.79;74.60;99059.38;5032908;28;20033;-70
2023/05/25 04:22:44;;;;;;;16.02;9.30;;;;;;;11.79;74.16;99064.88;5046066;28;20070;-69
2023/05/25 04:25:10;;;;;;;17.45;8.68;;;;;;;11.80;74.48;99065.72;5050092;28;20036;-70
2023/05/25 04:27:35;;;;;;;14.05;9.00;;;;;;;11.79;74.82;99064.88;5051644;28;20059;-70
2023/05/25 04:30:02;;;;;;;13.90;8.80;;;;;;;11.80;74.69;99057.47;5037948;28;20045;-70
2023/05/25 04:32:28;;;;;;;12.68;8.13;;;;;;;11.81;74.41;99067.34;5035434;28;20521;-70
2023/05/25 04:34:55;;;;;;;15.13;8.55;;;;;;;11.86;74.31;99065.34;5035130;28;20124;-71
2023/05/25 04:37:21;;;;;;;13.13;8.23;;;;;;;11.85;74.23;99069.22;5050402;28;20025;-70
2023/05/25 04:39:47;;;;;;;15.00;8.30;;;;;;;11.86;74.66;99065.34;5041869;28;20040;-70
2023/05/25 04:42:13;;;;;;;14.55;8.50;;;;;;;11.85;74.33;99074.72;5040119;28;20033;-70
2023/05/25 04:44:39;;;;;;;15.18;8.68;;;;;;;11.85;74.55;99073.88;5045785;28;20053;-71
2023/05/25 04:47:06;;;;;;;14.75;8.95;;;;;;;11.84;75.06;99081.31;5056158;28;20029;-71
2023/05/25 04:49:31;;;;;;;15.32;8.43;;;;;;;11.82;74.77;99069.78;5042483;28;20144;-71
2023/05/25 04:51:56;;;;;;;14.25;8.20;;;;;;;11.83;74.24;99079.69;5040173;28;20049;-70
2023/05/25 04:54:22;;;;;;;15.32;9.27;;;;;;;11.88;74.75;99090.63;5052629;28;20071;-70
2023/05/25 04:56:47;;;;;;;13.65;9.07;;;;;;;11.86;74.95;99089.25;5059633;28;20029;-71
2023/05/25 04:59:13;;;;;;;10.70;8.20;;;;;;;11.85;74.32;99085.72;5036744;28;20033;-70
2023/05/25 05:01:39;;;;;;;13.48;8.43;;;;;;;11.89;74.77;99088.69;5043963;28;20029;-69
2023/05/25 05:04:08;;;;;;;14.52;8.30;;;;;;;11.90;74.58;99093.06;5043361;28;20108;-70
2023/05/25 05:06:33;;;;;;;15.60;9.10;;;;;;;11.88;74.40;99084.28;5043547;28;20029;-69
2023/05/25 05:09:00;;;;;;;15.73;9.43;;;;;;;11.85;74.69;99091.22;5055610;28;20029;-70
2023/05/25 05:11:27;;;;;;;18.35;10.07;;;;;;;11.81;74.22;99095.63;5060239;28;20056;-69
2023/05/25 05:13:53;;;;;;;16.00;9.57;;;;;;;11.83;74.81;99100.84;5045189;28;20021;-70
2023/05/25 05:16:18;;;;;;;16.73;9.38;;;;;;;11.84;74.74;99102.47;5035363;28;20029;-69
2023/05/25 05:18:44;;;;;;;18.83;10.30;;;;;;;11.85;75.09;99099.44;5037666;28;20029;-70
2023/05/25 05:21:09;;;;;;;33.90;17.33;;;;;;;11.85;74.49;99106.88;5075397;28;20028;-69
2023/05/25 05:23:35;;;;;;;19.02;11.27;;;;;;;11.84;74.94;99103.31;5052285;28;20030;-69
2023/05/25 05:26:00;;;;;;;16.27;9.15;;;;;;;11.85;74.71;99106.88;5048435;28;20025;-69
2023/05/25 05:28:27;;;;;;;16.48;10.32;;;;;;;11.86;74.73;99108.50;5045835;28;20025;-70
2023/05/25 05:30:52;;;;;;;15.18;9.30;;;;;;;11.88;74.96;99111.78;5040201;28;20032;-69
2023/05/25 05:33:18;;;;;;;14.43;9.50;;;;;;;11.92;74.84;99112.84;5046404;28;20030;-70
2023/05/25 05:35:43;;;;;;;16.20;9.68;;;;;;;11.91;74.13;99103.78;5039497;28;20036;-70
2023/05/25 05:38:09;;;;;;;15.45;9.00;;;;;;;11.89;74.46;99106.00;5038965;28;20441;-69
2023/05/25 05:40:35;;;;;;;12.32;9.55;;;;;;;11.87;74.45;99102.72;5049501;28;20406;-70
2023/05/25 05:43:01;;;;;;;14.63;9.07;;;;;;;11.86;74.87;99112.09;5041041;28;20053;-69
2023/05/25 05:45:27;;;;;;;14.75;9.55;;;;;;;11.85;74.83;99113.19;5056984;28;20075;-68
2023/05/25 05:47:52;;;;;;;13.45;8.85;;;;;;;11.80;74.68;99118.72;5050982;28;20100;-67
2023/05/25 05:50:18;;;;;;;20.38;10.52;;;;;;;11.82;74.98;99110.22;5054539;28;20029;-70
2023/05/25 05:52:43;;;;;;;16.30;9.95;;;;;;;11.85;75.01;99115.94;5054727;28;20433;-69
2023/05/25 05:55:08;;;;;;;17.65;10.38;;;;;;;11.85;75.32;99117.84;5039438;28;20034;-69
2023/05/25 05:57:34;;;;;;;16.67;9.57;;;;;;;11.88;74.87;99120.88;5045914;28;20032;-70
2023/05/25 05:59:59;;;;;;;11.70;8.35;;;;;;;11.94;75.04;99109.81;5048976;28;20064;-73
2023/05/25 06:02:25;;;;;;;14.73;9.73;;;;;;;11.97;74.93;99120.25;5046918;28;20461;-71
2023/05/25 06:04:50;;;;;;;15.55;9.02;;;;;;;12.00;75.40;99130.69;5053464;28;20021;-70
2023/05/25 06:07:16;;;;;;;13.35;8.80;;;;;;;11.98;74.70;99136.44;5051543;28;20032;-71
2023/05/25 06:09:41;;;;;;;33.08;12.73;;;;;;;11.97;74.66;99134.78;5048904;28;20401;-73
2023/05/25 06:12:07;;;;;;;18.05;9.65;;;;;;;11.97;74.47;99136.75;5052923;28;20025;-70
2023/05/25 06:14:32;;;;;;;15.45;8.60;;;;;;;11.98;74.92;99141.13;5052557;28;20031;-71
2023/05/25 06:16:58;;;;;;;13.88;8.32;;;;;;;11.98;74.54;99136.44;5051776;28;20504;-69
2023/05/25 06:19:23;;;;;;;12.63;8.43;;;;;;;12.00;74.79;99144.44;5049830;28;20091;-69
2023/05/25 06:21:48;;;;;;;16.67;7.80;;;;;;;11.99;74.24;99148.28;5052580;28;20036;-68
2023/05/25 06:24:14;;;;;;;15.23;8.65;;;;;;;11.99;74.28;99143.59;5050942;28;20064;-72
2023/05/25 06:26:40;;;;;;;11.45;8.07;;;;;;;12.00;74.37;99141.69;5047813;28;20071;-71
2023/05/25 06:29:05;;;;;;;12.50;7.43;;;;;;;11.96;74.74;99143.34;5047177;28;20052;-70
2023/05/25 06:31:31;;;;;;;11.40;7.20;;;;;;;11.93;74.51;99150.22;5043000;28;20036;-69
2023/05/25 06:33:56;;;;;;;15.23;6.70;;;;;;;11.93;74.30;99146.66;5044495;28;20029;-71
2023/05/25 06:36:22;;;;;;;11.10;6.65;;;;;;;11.95;74.55;99153.50;5049148;28;20033;-70
2023/05/25 06:38:47;;;;;;;14.35;7.35;;;;;;;11.99;74.65;99156.50;5050160;28;20029;-69
2023/05/25 06:41:13;;;;;;;14.82;7.40;;;;;;;12.02;74.50;99165.03;5052370;28;20044;-70
2023/05/25 06:43:41;;;;;;;15.05;7.20;;;;;;;12.04;74.59;99157.31;5052018;28;20432;-69
2023/05/25 06:46:08;;;;;;;14.23;6.57;;;;;;;12.05;74.39;99158.13;5052216;28;20025;-71
2023/05/25 06:48:33;;;;;;;14.93;6.75;;;;;;;12.04;74.05;99160.06;5048251;28;20169;-70
2023/05/25 06:50:59;;;;;;;11.45;5.93;;;;;;;12.08;73.88;99160.28;5050148;28;20036;-70
2023/05/25 06:53:24;;;;;;;9.15;4.80;;;;;;;12.10;74.22;99163.56;5052302;28;20060;-71
2023/05/25 06:55:49;;;;;;;9.00;5.20;;;;;;;12.11;74.14;99175.41;5052289;28;20033;-70
2023/05/25 06:58:15;;;;;;;8.00;5.07;;;;;;;12.10;73.93;99168.25;5052098;28;20029;-71
2023/05/25 07:00:40;;;;;;;6.95;4.60;;;;;;;12.09;73.33;99166.63;5051349;28;20044;-71
2023/05/25 07:03:06;;;;;;;8.18;4.60;;;;;;;12.08;73.40;99164.97;5051383;28;20032;-70
2023/05/25 07:05:31;;;;;;;8.77;5.25;;;;;;;12.11;73.43;99169.91;5049243;28;20492;-71
2023/05/25 07:07:56;;;;;;;7.97;5.20;;;;;;;12.12;73.27;99164.09;5053063;28;20405;-70
2023/05/25 07:10:22;;;;;;;10.38;4.70;;;;;;;12.19;73.28;99163.78;5046833;28;20044;-69
2023/05/25 07:12:47;;;;;;;7.68;5.00;;;;;;;12.20;72.83;99168.19;5048902;28;20033;-70
2023/05/25 07:15:14;;;;;;;9.13;4.78;;;;;;;12.24;72.66;99165.66;5048422;28;20020;-70
2023/05/25 07:17:40;;;;;;;7.18;5.00;;;;;;;12.29;72.88;99168.34;5051923;28;20095;-71
2023/05/25 07:20:06;;;;;;;7.93;4.70;;;;;;;12.34;73.21;99171.06;5050339;28;20033;-70
2023/05/25 07:22:31;;;;;;;6.13;4.60;;;;;;;12.36;72.68;99172.41;5047550;28;20108;-69
2023/05/25 07:24:57;;;;;;;7.32;4.72;;;;;;;12.37;72.56;99170.47;5044705;28;20604;-69
2023/05/25 07:27:24;;;;;;;9.15;5.63;;;;;;;12.41;72.81;99173.47;5051151;28;20021;-69
2023/05/25 07:29:50;;;;;;;11.60;5.78;;;;;;;12.48;72.50;99176.69;5049295;28;20418;-69
2023/05/25 07:32:15;;;;;;;12.52;6.53;;;;;;;12.56;72.29;99169.72;5056594;28;20032;-69
2023/05/25 07:34:40;;;;;;;10.75;6.05;;;;;;;12.58;72.08;99176.59;5048036;28;20024;-70
2023/05/25 07:37:06;;;;;;;8.80;5.10;;;;;;;12.62;72.09;99185.06;5051730;28;20428;-69
2023/05/25 07:39:31;;;;;;;10.15;5.78;;;;;;;12.66;72.11;99184.19;5050274;28;20040;-69
2023/05/25 07:41:56;;;;;;;10.05;6.00;;;;;;;12.74;72.65;99181.91;5049427;28;20036;-69
2023/05/25 07:44:22;;;;;;;5.97;4.35;;;;;;;12.83;72.09;99185.66;5051027;28;20028;-70
2023/05/25 07:46:47;;;;;;;9.32;5.55;;;;;;;12.80;71.79;99189.84;5051535;28;20064;-70
2023/05/25 07:49:15;;;;;;;6.57;4.95;;;;;;;12.83;71.74;99195.88;5048022;28;20465;-70
2023/05/25 07:51:44;;;;;;;10.43;6.10;;;;;;;12.77;71.14;99187.66;5051553;28;20139;-70
2023/05/25 07:54:10;;;;;;;11.60;5.80;;;;;;;12.76;71.54;99187.94;5050104;28;20457;-69
2023/05/25 07:56:35;;;;;;;8.80;5.47;;;;;;;12.78;71.44;99199.47;5045983;28;20056;-69
2023/05/25 07:59:01;;;;;;;9.02;5.13;;;;;;;12.76;70.77;99188.78;5044075;28;20036;-68
2023/05/25 08:01:26;;;;;;;8.55;5.10;;;;;;;12.72;71.13;99198.72;5048159;28;20528;-70
2023/05/25 08:03:51;;;;;;;11.07;6.70;;;;;;;12.71;71.22;99182.50;5045867;28;20025;-69
2023/05/25 08:06:17;;;;;;;10.55;6.45;;;;;;;12.72;71.15;99187.72;5051175;28;20025;-70
2023/05/25 08:08:43;;;;;;;11.95;6.70;;;;;;;12.78;71.58;99185.72;5050499;28;20036;-70
2023/05/25 08:11:10;;;;;;;12.75;6.38;;;;;;;12.84;71.41;99183.75;5051353;28;20120;-70
2023/05/25 08:13:35;;;;;;;9.50;6.30;;;;;;;12.92;71.25;99186.66;5048598;28;20029;-71
2023/05/25 08:16:01;;;;;;;10.15;6.60;;;;;;;13.00;71.30;99187.13;5041419;28;20037;-71
2023/05/25 08:18:26;;;;;;;11.50;7.10;;;;;;;13.06;71.37;99178.50;5049697;28;20465;-70
2023/05/25 08:20:52;;;;;;;11.32;7.25;;;;;;;13.12;70.70;99178.44;5047083;28;20033;-69
2023/05/25 08:23:17;;;;;;;10.98;6.78;;;;;;;13.15;71.11;99180.59;5047831;28;20083;-70
2023/05/25 08:25:42;;;;;;;7.78;5.82;;;;;;;13.20;70.65;99183.28;5051223;28;20508;-69
2023/05/25 08:28:08;;;;;;;8.60;6.13;;;;;;;13.21;70.78;99184.94;5049216;28;20033;-69
2023/05/25 08:30:33;;;;;;;10.68;6.80;;;;;;;13.22;70.58;99176.34;5054756;28;20021;-69
2023/05/25 08:32:59;;;;;;;12.50;6.80;;;;;;;13.23;70.79;99179.94;5049364;28;20048;-71
2023/05/25 08:35:24;;;;;;;10.38;6.45;;;;;;;13.24;70.88;99184.34;5054106;28;20021;-70
2023/05/25 08:37:50;;;;;;;9.30;6.20;;;;;;;13.28;70.71;99179.03;5054936;28;20044;-70
2023/05/25 08:40:21;;;;;;;9.68;6.35;;;;;;;13.31;70.62;99176.50;5054408;28;20040;-70
2023/05/25 08:42:46;;;;;;;9.93;6.53;;;;;;;13.32;70.89;99185.59;5054785;28;20473;-69
2023/05/25 08:45:12;;;;;;;10.55;7.20;;;;;;;13.34;70.60;99186.94;5053313;28;20024;-69
2023/05/25 08:47:42;;;;;;;10.27;6.40;;;;;;;13.32;70.45;99189.16;5054887;28;20061;-70
2023/05/25 08:50:09;;;;;;;9.52;6.63;;;;;;;13.36;70.48;99178.38;5053916;28;20036;-69
2023/05/25 08:52:36;;;;;;;8.35;5.78;;;;;;;13.38;70.38;99179.72;5054315;28;20033;-71
2023/05/25 08:55:07;;;;;;;8.48;5.90;;;;;;;13.36;70.24;99181.94;5054520;28;20033;-70
2023/05/25 08:57:58;;;;;;;10.13;7.03;;;;;;;13.37;70.07;99186.34;5055510;28;20760;-70
2023/05/25 09:00:34;;;;;;;10.65;6.88;;;;;;;13.29;69.90;99189.75;5048833;28;20060;-71
2023/05/25 09:03:16;;;;;;;19.05;8.63;;;;;;;13.23;70.26;99185.44;5055722;28;20025;-69
2023/05/25 09:05:42;;;;;;;12.60;7.72;;;;;;;13.22;70.21;99183.81;5048568;28;20111;-70
2023/05/25 09:08:08;;;;;;;14.70;8.20;;;;;;;13.22;70.17;99192.06;5051032;28;20439;-71
2023/05/25 09:10:34;;;;;;;11.25;6.90;;;;;;;13.25;70.19;99194.22;5052059;28;20600;-71
2023/05/25 09:13:00;;;;;;;14.15;7.95;;;;;;;13.25;70.37;99195.03;5051954;28;20034;-70
2023/05/25 09:15:26;;;;;;;11.98;7.57;;;;;;;13.30;70.38;99196.09;5050320;28;20469;-70
2023/05/25 09:17:51;;;;;;;11.60;8.00;;;;;;;13.34;70.25;99194.38;5050057;28;20381;-70
2023/05/25 09:20:18;;;;;;;10.93;7.40;;;;;;;13.37;70.40;99197.34;5055404;28;20025;-70
2023/05/25 09:22:45;;;;;;;11.32;7.68;;;;;;;13.46;70.27;99194.78;5050793;28;20032;-70
2023/05/25 09:25:13;;;;;;;12.30;7.68;;;;;;;13.49;70.22;99188.69;5053440;28;20104;-70
2023/05/25 09:27:40;;;;;;;12.80;7.80;;;;;;;13.52;70.28;99192.78;5057142;28;20380;-69
2023/05/25 09:30:06;;;;;;;12.25;7.35;;;;;;;13.58;70.36;99180.56;5048717;28;20033;-69
2023/05/25 09:32:31;;;;;;;10.50;7.90;;;;;;;13.61;70.07;99187.41;5054415;28;20040;-70
2023/05/25 09:35:09;;;;;;;14.82;8.27;;;;;;;13.67;69.79;99184.28;5054034;28;20036;-71
2023/05/25 09:37:36;;;;;;;12.55;8.20;;;;;;;13.70;69.87;99188.38;5053947;28;20025;-71
2023/05/25 09:40:04;;;;;;;12.23;7.45;;;;;;;13.70;69.85;99188.38;5053312;28;20134;-70
2023/05/25 09:42:31;;;;;;;9.45;7.00;;;;;;;13.72;69.84;99185.31;5050055;28;20493;-70
2023/05/25 09:45:00;;;;;;;12.98;8.07;;;;;;;13.72;69.93;99193.59;5057685;28;20394;-71
2023/05/25 09:47:27;;;;;;;10.80;8.07;;;;;;;13.76;69.88;99197.38;5052070;28;20037;-71
2023/05/25 09:49:54;;;;;;;14.93;11.07;;;;;;;13.82;69.75;99201.72;5053346;28;20025;-70
2023/05/25 09:52:20;;;;;;;24.75;14.45;;;;;;;13.90;69.72;99192.75;5055209;28;20052;-69
2023/05/25 09:54:50;;;;;;;52.17;19.75;;;;;;;13.98;69.82;99181.06;5036950;28;20029;-73
2023/05/25 09:57:17;;;;;;;;;;;;;;;14.10;70.07;99191.59;5046901;28;20029;-70
2023/05/25 09:59:44;;;;;;;11.93;8.15;;;;;;;14.19;69.46;99186.22;5055168;28;19919;-70
2023/05/25 10:02:10;;;;;;;14.27;8.30;;;;;;;14.32;69.37;99195.63;5057109;28;20024;-69
2023/05/25 10:04:35;;;;;;;9.93;7.28;;;;;;;14.38;69.46;99188.91;5053405;28;20022;-69
2023/05/25 10:07:02;;;;;;;10.43;7.57;;;;;;;14.43;68.28;99186.06;5054024;28;20038;-70
2023/05/25 10:09:28;;;;;;;9.68;7.22;;;;;;;14.53;68.83;99185.03;5046418;28;20022;-71
2023/05/25 10:11:56;;;;;;;10.32;7.30;;;;;;;14.54;68.32;99189.44;5049749;28;20104;-71
2023/05/25 10:14:26;;;;;;;9.43;6.95;;;;;;;14.53;68.45;99198.84;5049582;28;20082;-70
2023/05/25 10:16:52;;;;;;;;;;;;;;;14.59;68.63;99185.78;5049775;28;20033;-70
2023/05/25 10:19:40;;;;;;;10.65;6.45;;;;;;;14.67;68.82;99182.28;5053553;28;19962;-71
2023/05/25 10:22:31;;;;;;;7.75;6.32;;;;;;;14.77;68.72;99186.84;5045892;28;20094;-69
2023/05/25 10:25:06;;;;;;;10.90;6.53;;;;;;;14.82;67.55;99194.19;5048384;28;20036;-69
2023/05/25 10:27:40;;;;;;;14.52;7.35;;;;;;;14.77;68.11;99184.09;5049621;28;20031;-69
2023/05/25 10:30:07;;;;;;;9.90;6.97;;;;;;;14.75;67.57;99180.81;5048929;28;20029;-69
2023/05/25 10:32:35;;;;;;;9.77;7.03;;;;;;;14.77;67.58;99183.25;5051231;28;20028;-70
2023/05/25 10:35:01;;;;;;;10.18;6.97;;;;;;;14.77;67.94;99181.31;5050429;28;20025;-69
2023/05/25 10:37:28;;;;;;;9.95;7.53;;;;;;;14.79;67.69;99183.75;5051187;28;20021;-69
2023/05/25 10:39:56;;;;;;;9.32;7.18;;;;;;;14.82;67.59;99183.16;5051479;28;20389;-77
2023/05/25 10:42:21;;;;;;;13.05;7.85;;;;;;;14.81;67.54;99184.28;5051547;28;20029;-74
2023/05/25 10:44:48;;;;;;;9.73;6.75;;;;;;;14.80;67.11;99185.41;5048333;28;20055;-71
2023/05/25 10:47:14;;;;;;;9.25;6.70;;;;;;;14.77;67.69;99189.59;5051718;28;20029;-70
2023/05/25 10:50:01;;;;;;;9.38;6.47;;;;;;;14.79;67.68;99190.13;5052529;28;20036;-70
2023/05/25 10:52:28;;;;;;;10.55;7.22;;;;;;;14.81;67.70;99196.16;5052983;28;20059;-70
2023/05/25 10:55:00;;;;;;;7.55;6.05;;;;;;;14.77;67.63;99197.88;5051415;28;20020;-71
2023/05/25 10:57:26;;;;;;;10.38;6.57;;;;;;;14.74;67.01;99193.78;5054778;28;20044;-71
2023/05/25 10:59:58;;;;;;;10.68;6.93;;;;;;;14.71;67.20;99191.63;5052867;28;20037;-69
2023/05/25 11:02:27;;;;;;;8.68;6.30;;;;;;;14.76;67.37;99189.91;5053492;28;20105;-72
2023/05/25 11:05:29;;;;;;;10.18;7.07;;;;;;;14.82;67.11;99189.50;5053804;28;20337;-72
2023/05/25 11:08:01;;;;;;;11.10;7.78;;;;;;;14.81;67.21;99193.41;5051800;28;20040;-71
2023/05/25 11:10:48;;;;;;;12.48;8.73;;;;;;;14.80;67.50;99190.94;5051728;28;20025;-70
2023/05/25 11:13:34;;;;;;;10.40;7.07;;;;;;;14.82;67.05;99183.16;5052041;28;20131;-72
2023/05/25 11:16:19;;;;;;;10.57;6.78;;;;;;;14.81;67.30;99184.28;5053673;28;20029;-73
2023/05/25 11:18:50;;;;;;;9.98;7.35;;;;;;;14.77;66.82;99186.00;5051119;28;20033;-72
2023/05/25 11:21:25;;;;;;;9.88;7.18;;;;;;;14.74;66.74;99179.16;5052149;28;20470;-71
2023/05/25 11:23:55;;;;;;;9.48;7.30;;;;;;;14.76;67.03;99173.34;5051119;28;20020;-70
2023/05/25 11:26:41;;;;;;;10.60;7.05;;;;;;;14.87;67.22;99175.59;5049698;28;20025;-71